Avis, PA

5:18 AM EDT on September 02, 2014 (GMT -0400)
W3TMB | Change Station
CLOSE
Current Station
Personal Weather Station
Location: Jersey Shore, PA
Elevation: 551 ft
Nearby Weather Stations

Elev 551 ft 41.21 °N, 77.26 °W | Updated 5 minutes ago

Mostly Cloudy
Mostly Cloudy
70.9 °F
Feels Like 70.9 °F
N
0.0
Wind Variable Wind from SW

Today
High -- | Low -- °F
--% Chance of Precip.
Yesterday
High -- | Low -- °F
Precip. -- in
6:36 AM 7:40 PM
Waxing Crescent, 49% visible
Pressure 29.89 in
Visibility 0.2 miles
Clouds
Dew Point 70 °F
Humidity 98%
Rainfall 0.00 in
Snow Depth Not available.
UV Not available.
Pollen 5.00 out of 12
Air Quality Not available.
Flu Activity Not available.
METAR KIPT 020854Z AUTO 00000KT 1/4SM FG VV002 21/20 A2990 RMK AO2 SLP120 T02110200 58005

More Conditions Fewer Conditions

Pressure 29.89 in
Visibility 0.2 miles
Clouds
Dew Point 70 °F
Humidity 98%
Rainfall 0.00 in
Snow Depth Not available.
UV Not available.
Pollen 5.00 out of 12
Air Quality Not available.
Flu Activity Not available.
METAR KIPT 020854Z AUTO 00000KT 1/4SM FG VV002 21/20 A2990 RMK AO2 SLP120 T02110200 58005

More Conditions Fewer Conditions

Nowcast | as of 4:19 am EDT on September 2, 2014

Clusters of showers and thunderstorms will be across north central Pennsylvania through sunrise. Most of the activity will be north of a Clearfield...State College...Williamsport line. Some storms will contain a brief heavy downpour. The showers and storms are moving northeast at 25 mph.

×

10-Day Weather Forecast

Almanac

Astronomy

Sep. 02, 2014 Rise Set
Actual Time 6:36 AM EDT 7:40 PM EDT
Civil Twilight 6:08 AM EDT 8:08 PM EDT
Nautical Twilight 5:34 AM EDT 8:42 PM EDT
Astronomical Twilight 4:59 AM EDT 9:17 PM EDT
Moon 2:23 PM EDT No Moon Set
Length of Visible Light 14h 00m
Length of Day
13h 03m
Tomorrow will be 2m 39s shorter.
Waxing Crescent, 49% of the Moon is Illuminated
Today
Waxing Crescent
Sep 2
First Quarter
Sep 8
Full
Sep 15
Last Quarter
Sep 24
New

Today's Extremes

State Highs State Lows

Community

WunderPhotos

Upload Photos

1,749,587 photos uploaded!

WunderBlogs® & News

Nearby

Snow Depth

Station Depth Elevation
No new snow has been reported.

Earthquake Activity

City Distance Mag. Time & Date
No recent earthquake activity has been reported nearby.
Minimum magnitude displayed is 2.5.

Coastal Water Temperatures

Place Temperature
No Stations Reporting

Nearby Weather Stations